sensor_id;sensor_type;location;lat;lon;timestamp;P1;durP1;ratioP1;P2;durP2;ratioP2
23658;SDS011;12006;42.666;23.326;2024-02-04T00:01:29;2.83;;;2.23;;
23658;SDS011;12006;42.666;23.326;2024-02-04T00:03:54;2.57;;;1.63;;
23658;SDS011;12006;42.666;23.326;2024-02-04T00:06:20;2.30;;;1.97;;
23658;SDS011;12006;42.666;23.326;2024-02-04T00:08:45;3.20;;;2.10;;
23658;SDS011;12006;42.666;23.326;2024-02-04T00:11:10;2.23;;;1.70;;
23658;SDS011;12006;42.666;23.326;2024-02-04T00:13:37;3.47;;;2.37;;
23658;SDS011;12006;42.666;23.326;2024-02-04T00:16:02;3.20;;;2.40;;
23658;SDS011;12006;42.666;23.326;2024-02-04T00:18:28;2.30;;;2.03;;
23658;SDS011;12006;42.666;23.326;2024-02-04T00:20:53;2.13;;;1.60;;
23658;SDS011;12006;42.666;23.326;2024-02-04T00:23:18;1.63;;;1.53;;
23658;SDS011;12006;42.666;23.326;2024-02-04T00:25:44;2.40;;;1.70;;
23658;SDS011;12006;42.666;23.326;2024-02-04T00:28:09;3.77;;;2.10;;
23658;SDS011;12006;42.666;23.326;2024-02-04T00:30:37;2.47;;;2.23;;
23658;SDS011;12006;42.666;23.326;2024-02-04T00:33:02;2.33;;;2.13;;
23658;SDS011;12006;42.666;23.326;2024-02-04T00:35:28;2.57;;;2.37;;
23658;SDS011;12006;42.666;23.326;2024-02-04T00:37:54;2.87;;;2.00;;
23658;SDS011;12006;42.666;23.326;2024-02-04T00:40:19;3.07;;;1.87;;
23658;SDS011;12006;42.666;23.326;2024-02-04T00:42:44;3.60;;;2.37;;
23658;SDS011;12006;42.666;23.326;2024-02-04T00:45:10;3.13;;;1.77;;
23658;SDS011;12006;42.666;23.326;2024-02-04T00:47:35;3.30;;;2.60;;
23658;SDS011;12006;42.666;23.326;2024-02-04T00:50:00;2.90;;;2.50;;
23658;SDS011;12006;42.666;23.326;2024-02-04T00:52:26;3.10;;;2.13;;
23658;SDS011;12006;42.666;23.326;2024-02-04T00:54:51;3.73;;;2.33;;
23658;SDS011;12006;42.666;23.326;2024-02-04T00:57:16;2.10;;;1.90;;
23658;SDS011;12006;42.666;23.326;2024-02-04T00:59:41;2.50;;;1.90;;
23658;SDS011;12006;42.666;23.326;2024-02-04T01:02:06;3.20;;;1.83;;
23658;SDS011;12006;42.666;23.326;2024-02-04T01:04:32;1.97;;;1.70;;
23658;SDS011;12006;42.666;23.326;2024-02-04T01:06:57;2.57;;;2.10;;
23658;SDS011;12006;42.666;23.326;2024-02-04T01:09:22;2.90;;;2.13;;
23658;SDS011;12006;42.666;23.326;2024-02-04T01:11:47;4.40;;;2.40;;
23658;SDS011;12006;42.666;23.326;2024-02-04T01:14:13;2.53;;;1.67;;
23658;SDS011;12006;42.666;23.326;2024-02-04T01:16:38;2.70;;;1.80;;
23658;SDS011;12006;42.666;23.326;2024-02-04T01:19:03;2.03;;;1.70;;
23658;SDS011;12006;42.666;23.326;2024-02-04T01:21:28;3.23;;;2.20;;
23658;SDS011;12006;42.666;23.326;2024-02-04T01:23:54;2.00;;;1.40;;
23658;SDS011;12006;42.666;23.326;2024-02-04T01:26:19;2.00;;;1.80;;
23658;SDS011;12006;42.666;23.326;2024-02-04T01:28:45;2.57;;;2.27;;
23658;SDS011;12006;42.666;23.326;2024-02-04T01:31:10;2.63;;;2.23;;
23658;SDS011;12006;42.666;23.326;2024-02-04T01:33:35;2.33;;;1.53;;
23658;SDS011;12006;42.666;23.326;2024-02-04T01:36:01;3.83;;;1.60;;
23658;SDS011;12006;42.666;23.326;2024-02-04T01:38:26;3.73;;;2.03;;
23658;SDS011;12006;42.666;23.326;2024-02-04T01:40:51;4.00;;;2.30;;
23658;SDS011;12006;42.666;23.326;2024-02-04T01:43:18;2.87;;;2.40;;
23658;SDS011;12006;42.666;23.326;2024-02-04T01:45:46;3.10;;;2.10;;
23658;SDS011;12006;42.666;23.326;2024-02-04T01:48:11;2.20;;;1.80;;
23658;SDS011;12006;42.666;23.326;2024-02-04T01:50:39;1.70;;;1.13;;
23658;SDS011;12006;42.666;23.326;2024-02-04T01:53:04;3.20;;;2.10;;
23658;SDS011;12006;42.666;23.326;2024-02-04T01:55:30;4.30;;;2.20;;
23658;SDS011;12006;42.666;23.326;2024-02-04T01:57:55;2.17;;;1.90;;
23658;SDS011;12006;42.666;23.326;2024-02-04T02:00:20;3.87;;;1.87;;
23658;SDS011;12006;42.666;23.326;2024-02-04T02:02:46;3.17;;;1.73;;
23658;SDS011;12006;42.666;23.326;2024-02-04T02:05:11;2.07;;;1.87;;
23658;SDS011;12006;42.666;23.326;2024-02-04T02:07:36;1.90;;;1.67;;
23658;SDS011;12006;42.666;23.326;2024-02-04T02:10:02;2.00;;;1.70;;
23658;SDS011;12006;42.666;23.326;2024-02-04T02:12:31;3.40;;;2.00;;
23658;SDS011;12006;42.666;23.326;2024-02-04T02:15:05;2.17;;;1.60;;
23658;SDS011;12006;42.666;23.326;2024-02-04T02:17:41;2.63;;;1.57;;
23658;SDS011;12006;42.666;23.326;2024-02-04T02:20:16;2.37;;;1.87;;
23658;SDS011;12006;42.666;23.326;2024-02-04T02:22:50;2.30;;;1.80;;
23658;SDS011;12006;42.666;23.326;2024-02-04T02:25:16;1.80;;;1.60;;
23658;SDS011;12006;42.666;23.326;2024-02-04T02:27:51;2.30;;;1.77;;
23658;SDS011;12006;42.666;23.326;2024-02-04T02:30:16;2.23;;;1.87;;
23658;SDS011;12006;42.666;23.326;2024-02-04T02:32:42;1.60;;;1.50;;
23658;SDS011;12006;42.666;23.326;2024-02-04T02:35:08;2.00;;;1.53;;
23658;SDS011;12006;42.666;23.326;2024-02-04T02:37:36;3.00;;;2.03;;
23658;SDS011;12006;42.666;23.326;2024-02-04T02:40:03;2.07;;;1.40;;
23658;SDS011;12006;42.666;23.326;2024-02-04T02:42:29;1.70;;;1.57;;
23658;SDS011;12006;42.666;23.326;2024-02-04T02:44:55;2.67;;;1.70;;
23658;SDS011;12006;42.666;23.326;2024-02-04T02:47:20;1.30;;;1.10;;
23658;SDS011;12006;42.666;23.326;2024-02-04T02:49:47;2.70;;;1.93;;
23658;SDS011;12006;42.666;23.326;2024-02-04T02:52:12;2.37;;;1.40;;
23658;SDS011;12006;42.666;23.326;2024-02-04T02:54:37;3.07;;;1.47;;
23658;SDS011;12006;42.666;23.326;2024-02-04T02:57:03;3.33;;;1.87;;
23658;SDS011;12006;42.666;23.326;2024-02-04T02:59:28;1.53;;;1.43;;
23658;SDS011;12006;42.666;23.326;2024-02-04T03:01:53;3.47;;;1.50;;
23658;SDS011;12006;42.666;23.326;2024-02-04T03:04:18;2.90;;;2.20;;
23658;SDS011;12006;42.666;23.326;2024-02-04T03:06:44;2.10;;;1.70;;
23658;SDS011;12006;42.666;23.326;2024-02-04T03:09:09;2.20;;;2.00;;
23658;SDS011;12006;42.666;23.326;2024-02-04T03:11:35;3.60;;;1.77;;
23658;SDS011;12006;42.666;23.326;2024-02-04T03:14:02;2.27;;;1.60;;
23658;SDS011;12006;42.666;23.326;2024-02-04T03:16:28;1.33;;;1.23;;
23658;SDS011;12006;42.666;23.326;2024-02-04T03:18:53;1.63;;;1.40;;
23658;SDS011;12006;42.666;23.326;2024-02-04T03:21:18;2.03;;;1.87;;
23658;SDS011;12006;42.666;23.326;2024-02-04T03:23:44;1.40;;;1.30;;
23658;SDS011;12006;42.666;23.326;2024-02-04T03:26:15;2.30;;;1.77;;
23658;SDS011;12006;42.666;23.326;2024-02-04T03:28:41;2.03;;;1.50;;
23658;SDS011;12006;42.666;23.326;2024-02-04T03:31:06;1.60;;;1.50;;
23658;SDS011;12006;42.666;23.326;2024-02-04T03:33:31;2.80;;;1.30;;
23658;SDS011;12006;42.666;23.326;2024-02-04T03:35:56;1.73;;;1.60;;
23658;SDS011;12006;42.666;23.326;2024-02-04T03:38:22;1.70;;;1.27;;
23658;SDS011;12006;42.666;23.326;2024-02-04T03:40:47;2.23;;;1.93;;
23658;SDS011;12006;42.666;23.326;2024-02-04T03:43:14;2.00;;;1.30;;
23658;SDS011;12006;42.666;23.326;2024-02-04T03:45:39;1.63;;;1.50;;
23658;SDS011;12006;42.666;23.326;2024-02-04T03:48:04;1.70;;;1.50;;
23658;SDS011;12006;42.666;23.326;2024-02-04T03:50:29;2.10;;;1.60;;
23658;SDS011;12006;42.666;23.326;2024-02-04T03:52:55;2.40;;;2.03;;
23658;SDS011;12006;42.666;23.326;2024-02-04T03:55:20;2.00;;;1.50;;
23658;SDS011;12006;42.666;23.326;2024-02-04T03:57:45;1.93;;;1.70;;
23658;SDS011;12006;42.666;23.326;2024-02-04T04:00:10;1.57;;;1.47;;
23658;SDS011;12006;42.666;23.326;2024-02-04T04:02:36;2.37;;;1.80;;
23658;SDS011;12006;42.666;23.326;2024-02-04T04:05:02;1.60;;;1.50;;
23658;SDS011;12006;42.666;23.326;2024-02-04T04:07:27;1.40;;;1.23;;
23658;SDS011;12006;42.666;23.326;2024-02-04T04:09:52;1.73;;;0.70;;
23658;SDS011;12006;42.666;23.326;2024-02-04T04:12:17;2.50;;;1.40;;
23658;SDS011;12006;42.666;23.326;2024-02-04T04:14:43;1.90;;;1.33;;
23658;SDS011;12006;42.666;23.326;2024-02-04T04:17:08;1.93;;;1.33;;
23658;SDS011;12006;42.666;23.326;2024-02-04T04:19:33;1.30;;;1.20;;
23658;SDS011;12006;42.666;23.326;2024-02-04T04:22:01;2.20;;;2.00;;
23658;SDS011;12006;42.666;23.326;2024-02-04T04:24:26;1.20;;;1.10;;
23658;SDS011;12006;42.666;23.326;2024-02-04T04:26:51;1.63;;;1.27;;
23658;SDS011;12006;42.666;23.326;2024-02-04T04:29:16;1.70;;;1.50;;
23658;SDS011;12006;42.666;23.326;2024-02-04T04:31:42;2.67;;;1.40;;
23658;SDS011;12006;42.666;23.326;2024-02-04T04:34:07;1.17;;;1.00;;
23658;SDS011;12006;42.666;23.326;2024-02-04T04:36:32;1.80;;;1.30;;
23658;SDS011;12006;42.666;23.326;2024-02-04T04:38:57;0.60;;;0.60;;
23658;SDS011;12006;42.666;23.326;2024-02-04T04:41:22;1.40;;;1.30;;
23658;SDS011;12006;42.666;23.326;2024-02-04T04:43:48;1.53;;;1.20;;
23658;SDS011;12006;42.666;23.326;2024-02-04T04:46:13;2.37;;;1.60;;
23658;SDS011;12006;42.666;23.326;2024-02-04T04:48:38;1.93;;;1.80;;
23658;SDS011;12006;42.666;23.326;2024-02-04T04:51:03;2.00;;;1.43;;
23658;SDS011;12006;42.666;23.326;2024-02-04T04:53:29;1.67;;;1.20;;
23658;SDS011;12006;42.666;23.326;2024-02-04T04:55:54;1.70;;;1.53;;
23658;SDS011;12006;42.666;23.326;2024-02-04T04:58:19;1.50;;;1.30;;
23658;SDS011;12006;42.666;23.326;2024-02-04T05:00:44;0.97;;;0.83;;
23658;SDS011;12006;42.666;23.326;2024-02-04T05:03:10;1.27;;;1.17;;
23658;SDS011;12006;42.666;23.326;2024-02-04T05:05:35;1.60;;;1.50;;
23658;SDS011;12006;42.666;23.326;2024-02-04T05:08:00;1.87;;;1.70;;
23658;SDS011;12006;42.666;23.326;2024-02-04T05:10:25;2.13;;;1.20;;
23658;SDS011;12006;42.666;23.326;2024-02-04T05:12:50;1.60;;;1.23;;
23658;SDS011;12006;42.666;23.326;2024-02-04T05:15:16;1.73;;;1.30;;
23658;SDS011;12006;42.666;23.326;2024-02-04T05:17:41;2.37;;;1.67;;
23658;SDS011;12006;42.666;23.326;2024-02-04T05:20:06;1.50;;;1.40;;
23658;SDS011;12006;42.666;23.326;2024-02-04T05:22:32;2.70;;;1.90;;
23658;SDS011;12006;42.666;23.326;2024-02-04T05:24:58;2.50;;;1.40;;
23658;SDS011;12006;42.666;23.326;2024-02-04T05:27:23;1.87;;;1.57;;
23658;SDS011;12006;42.666;23.326;2024-02-04T05:29:48;3.17;;;1.37;;
23658;SDS011;12006;42.666;23.326;2024-02-04T05:32:14;1.90;;;1.60;;
23658;SDS011;12006;42.666;23.326;2024-02-04T05:34:39;2.10;;;1.90;;
23658;SDS011;12006;42.666;23.326;2024-02-04T05:37:04;2.17;;;1.70;;
23658;SDS011;12006;42.666;23.326;2024-02-04T05:39:30;1.97;;;1.60;;
23658;SDS011;12006;42.666;23.326;2024-02-04T05:41:55;1.57;;;1.33;;
23658;SDS011;12006;42.666;23.326;2024-02-04T05:44:20;1.67;;;1.40;;
23658;SDS011;12006;42.666;23.326;2024-02-04T05:46:45;2.23;;;1.90;;
23658;SDS011;12006;42.666;23.326;2024-02-04T05:49:11;1.97;;;1.63;;
23658;SDS011;12006;42.666;23.326;2024-02-04T05:51:39;2.03;;;1.57;;
23658;SDS011;12006;42.666;23.326;2024-02-04T05:54:08;2.20;;;1.60;;
23658;SDS011;12006;42.666;23.326;2024-02-04T05:56:33;3.00;;;1.70;;
23658;SDS011;12006;42.666;23.326;2024-02-04T05:58:59;2.03;;;1.83;;
23658;SDS011;12006;42.666;23.326;2024-02-04T06:01:24;2.20;;;1.63;;
23658;SDS011;12006;42.666;23.326;2024-02-04T06:03:49;1.70;;;1.60;;
23658;SDS011;12006;42.666;23.326;2024-02-04T06:06:15;1.90;;;1.67;;
23658;SDS011;12006;42.666;23.326;2024-02-04T06:08:40;2.40;;;1.37;;
23658;SDS011;12006;42.666;23.326;2024-02-04T06:11:09;2.10;;;1.57;;
23658;SDS011;12006;42.666;23.326;2024-02-04T06:13:34;1.87;;;1.53;;
23658;SDS011;12006;42.666;23.326;2024-02-04T06:15:59;1.73;;;1.30;;
23658;SDS011;12006;42.666;23.326;2024-02-04T06:18:24;2.27;;;1.80;;
23658;SDS011;12006;42.666;23.326;2024-02-04T06:20:50;1.47;;;1.37;;
23658;SDS011;12006;42.666;23.326;2024-02-04T06:23:15;2.37;;;1.90;;
23658;SDS011;12006;42.666;23.326;2024-02-04T06:25:40;1.60;;;1.50;;
23658;SDS011;12006;42.666;23.326;2024-02-04T06:28:05;1.50;;;1.33;;
23658;SDS011;12006;42.666;23.326;2024-02-04T06:30:31;1.77;;;1.67;;
23658;SDS011;12006;42.666;23.326;2024-02-04T06:32:57;2.13;;;1.90;;
23658;SDS011;12006;42.666;23.326;2024-02-04T06:35:22;2.47;;;1.90;;
23658;SDS011;12006;42.666;23.326;2024-02-04T06:37:47;2.23;;;1.70;;
23658;SDS011;12006;42.666;23.326;2024-02-04T06:40:12;2.13;;;1.50;;
23658;SDS011;12006;42.666;23.326;2024-02-04T06:42:38;3.17;;;1.50;;
23658;SDS011;12006;42.666;23.326;2024-02-04T06:45:03;1.10;;;1.10;;
23658;SDS011;12006;42.666;23.326;2024-02-04T06:47:28;2.40;;;1.47;;
23658;SDS011;12006;42.666;23.326;2024-02-04T06:49:54;2.57;;;1.80;;
23658;SDS011;12006;42.666;23.326;2024-02-04T06:52:19;2.10;;;1.90;;
23658;SDS011;12006;42.666;23.326;2024-02-04T06:54:44;2.00;;;1.50;;
23658;SDS011;12006;42.666;23.326;2024-02-04T06:57:09;1.37;;;1.27;;
23658;SDS011;12006;42.666;23.326;2024-02-04T06:59:35;1.07;;;1.07;;
23658;SDS011;12006;42.666;23.326;2024-02-04T07:02:00;1.70;;;1.47;;
23658;SDS011;12006;42.666;23.326;2024-02-04T07:04:26;2.10;;;1.90;;
23658;SDS011;12006;42.666;23.326;2024-02-04T07:06:51;4.63;;;1.63;;
23658;SDS011;12006;42.666;23.326;2024-02-04T07:09:16;1.43;;;1.17;;
23658;SDS011;12006;42.666;23.326;2024-02-04T07:11:42;1.40;;;1.30;;
23658;SDS011;12006;42.666;23.326;2024-02-04T07:14:07;1.60;;;1.50;;
23658;SDS011;12006;42.666;23.326;2024-02-04T07:16:33;2.37;;;2.13;;
23658;SDS011;12006;42.666;23.326;2024-02-04T07:18:58;1.37;;;1.17;;
23658;SDS011;12006;42.666;23.326;2024-02-04T07:21:24;2.17;;;1.80;;
23658;SDS011;12006;42.666;23.326;2024-02-04T07:23:49;2.10;;;1.47;;
23658;SDS011;12006;42.666;23.326;2024-02-04T07:26:14;2.37;;;1.27;;
23658;SDS011;12006;42.666;23.326;2024-02-04T07:28:39;2.03;;;1.40;;
23658;SDS011;12006;42.666;23.326;2024-02-04T07:31:05;1.90;;;1.77;;
23658;SDS011;12006;42.666;23.326;2024-02-04T07:33:30;1.77;;;1.67;;
23658;SDS011;12006;42.666;23.326;2024-02-04T07:35:55;2.47;;;1.50;;
23658;SDS011;12006;42.666;23.326;2024-02-04T07:38:21;1.53;;;1.23;;
23658;SDS011;12006;42.666;23.326;2024-02-04T07:40:46;2.90;;;1.80;;
23658;SDS011;12006;42.666;23.326;2024-02-04T07:43:11;1.60;;;1.30;;
23658;SDS011;12006;42.666;23.326;2024-02-04T07:45:37;2.07;;;1.60;;
23658;SDS011;12006;42.666;23.326;2024-02-04T07:48:03;1.30;;;1.17;;
23658;SDS011;12006;42.666;23.326;2024-02-04T07:50:28;2.90;;;1.80;;
23658;SDS011;12006;42.666;23.326;2024-02-04T07:52:53;2.77;;;1.30;;
23658;SDS011;12006;42.666;23.326;2024-02-04T07:55:19;2.77;;;1.70;;
23658;SDS011;12006;42.666;23.326;2024-02-04T07:57:44;2.27;;;1.30;;
23658;SDS011;12006;42.666;23.326;2024-02-04T08:00:09;2.43;;;1.20;;
23658;SDS011;12006;42.666;23.326;2024-02-04T08:02:37;1.60;;;1.23;;
23658;SDS011;12006;42.666;23.326;2024-02-04T08:05:03;2.63;;;1.50;;
23658;SDS011;12006;42.666;23.326;2024-02-04T08:07:29;1.67;;;1.37;;
23658;SDS011;12006;42.666;23.326;2024-02-04T08:09:54;1.93;;;1.23;;
23658;SDS011;12006;42.666;23.326;2024-02-04T08:12:19;4.13;;;1.77;;
23658;SDS011;12006;42.666;23.326;2024-02-04T08:14:45;1.83;;;1.57;;
23658;SDS011;12006;42.666;23.326;2024-02-04T08:17:10;2.17;;;1.50;;
23658;SDS011;12006;42.666;23.326;2024-02-04T08:19:35;2.10;;;1.57;;
23658;SDS011;12006;42.666;23.326;2024-02-04T08:22:00;1.30;;;1.17;;
23658;SDS011;12006;42.666;23.326;2024-02-04T08:24:26;2.70;;;1.20;;
23658;SDS011;12006;42.666;23.326;2024-02-04T08:26:51;1.73;;;0.90;;
23658;SDS011;12006;42.666;23.326;2024-02-04T08:29:18;3.50;;;1.50;;
23658;SDS011;12006;42.666;23.326;2024-02-04T08:31:43;5.80;;;2.07;;
23658;SDS011;12006;42.666;23.326;2024-02-04T08:34:08;1.43;;;1.33;;
23658;SDS011;12006;42.666;23.326;2024-02-04T08:36:34;3.00;;;1.50;;
23658;SDS011;12006;42.666;23.326;2024-02-04T08:38:59;2.23;;;1.30;;
23658;SDS011;12006;42.666;23.326;2024-02-04T08:41:24;1.17;;;1.03;;
23658;SDS011;12006;42.666;23.326;2024-02-04T08:43:49;1.23;;;1.10;;
23658;SDS011;12006;42.666;23.326;2024-02-04T08:46:15;1.23;;;1.10;;
23658;SDS011;12006;42.666;23.326;2024-02-04T08:48:43;1.90;;;1.17;;
23658;SDS011;12006;42.666;23.326;2024-02-04T08:51:12;1.33;;;0.93;;
23658;SDS011;12006;42.666;23.326;2024-02-04T08:53:41;1.53;;;1.00;;
23658;SDS011;12006;42.666;23.326;2024-02-04T08:56:06;1.90;;;1.13;;
23658;SDS011;12006;42.666;23.326;2024-02-04T08:58:31;1.33;;;0.97;;
23658;SDS011;12006;42.666;23.326;2024-02-04T09:00:57;2.73;;;1.07;;
23658;SDS011;12006;42.666;23.326;2024-02-04T09:03:22;1.23;;;1.00;;
23658;SDS011;12006;42.666;23.326;2024-02-04T09:05:48;1.27;;;0.80;;
23658;SDS011;12006;42.666;23.326;2024-02-04T09:08:13;1.80;;;1.00;;
23658;SDS011;12006;42.666;23.326;2024-02-04T09:10:38;1.20;;;0.83;;
23658;SDS011;12006;42.666;23.326;2024-02-04T09:13:04;1.67;;;0.80;;
23658;SDS011;12006;42.666;23.326;2024-02-04T09:15:29;1.20;;;0.93;;
23658;SDS011;12006;42.666;23.326;2024-02-04T09:17:54;2.87;;;1.37;;
23658;SDS011;12006;42.666;23.326;2024-02-04T09:20:19;1.63;;;0.90;;
23658;SDS011;12006;42.666;23.326;2024-02-04T09:22:45;1.00;;;0.90;;
23658;SDS011;12006;42.666;23.326;2024-02-04T09:25:10;1.13;;;0.90;;
23658;SDS011;12006;42.666;23.326;2024-02-04T09:27:35;0.80;;;0.60;;
23658;SDS011;12006;42.666;23.326;2024-02-04T09:30:01;0.67;;;0.57;;
23658;SDS011;12006;42.666;23.326;2024-02-04T09:32:27;1.53;;;1.30;;
23658;SDS011;12006;42.666;23.326;2024-02-04T09:34:52;1.23;;;1.10;;
23658;SDS011;12006;42.666;23.326;2024-02-04T09:37:17;0.97;;;0.87;;
23658;SDS011;12006;42.666;23.326;2024-02-04T09:39:42;1.20;;;1.10;;
23658;SDS011;12006;42.666;23.326;2024-02-04T09:42:08;1.57;;;1.00;;
23658;SDS011;12006;42.666;23.326;2024-02-04T09:44:33;1.23;;;0.80;;
23658;SDS011;12006;42.666;23.326;2024-02-04T09:47:01;2.83;;;1.17;;
23658;SDS011;12006;42.666;23.326;2024-02-04T09:49:26;10.60;;;2.83;;
23658;SDS011;12006;42.666;23.326;2024-02-04T09:51:52;2.20;;;1.40;;
23658;SDS011;12006;42.666;23.326;2024-02-04T09:54:17;1.43;;;1.13;;
23658;SDS011;12006;42.666;23.326;2024-02-04T09:56:43;1.37;;;1.07;;
23658;SDS011;12006;42.666;23.326;2024-02-04T09:59:08;1.67;;;1.20;;
23658;SDS011;12006;42.666;23.326;2024-02-04T10:01:34;1.47;;;1.10;;
23658;SDS011;12006;42.666;23.326;2024-02-04T10:04:00;2.00;;;1.07;;
23658;SDS011;12006;42.666;23.326;2024-02-04T10:06:25;1.30;;;0.90;;
23658;SDS011;12006;42.666;23.326;2024-02-04T10:08:50;1.40;;;1.23;;
23658;SDS011;12006;42.666;23.326;2024-02-04T10:11:16;2.70;;;1.07;;
23658;SDS011;12006;42.666;23.326;2024-02-04T10:13:45;2.30;;;1.20;;
23658;SDS011;12006;42.666;23.326;2024-02-04T10:16:11;0.93;;;0.83;;
23658;SDS011;12006;42.666;23.326;2024-02-04T10:18:36;1.23;;;1.00;;
23658;SDS011;12006;42.666;23.326;2024-02-04T10:21:02;0.90;;;0.80;;
23658;SDS011;12006;42.666;23.326;2024-02-04T10:23:27;0.90;;;0.80;;
23658;SDS011;12006;42.666;23.326;2024-02-04T10:25:59;1.37;;;0.80;;
23658;SDS011;12006;42.666;23.326;2024-02-04T10:28:24;1.03;;;0.80;;
23658;SDS011;12006;42.666;23.326;2024-02-04T10:30:50;1.00;;;0.87;;
23658;SDS011;12006;42.666;23.326;2024-02-04T10:33:15;0.80;;;0.80;;
23658;SDS011;12006;42.666;23.326;2024-02-04T10:35:42;1.33;;;1.13;;
23658;SDS011;12006;42.666;23.326;2024-02-04T10:38:07;1.53;;;0.80;;
23658;SDS011;12006;42.666;23.326;2024-02-04T10:40:32;1.17;;;0.97;;
23658;SDS011;12006;42.666;23.326;2024-02-04T10:42:59;1.43;;;1.10;;
23658;SDS011;12006;42.666;23.326;2024-02-04T10:45:25;2.70;;;1.40;;
23658;SDS011;12006;42.666;23.326;2024-02-04T10:47:55;0.90;;;0.90;;
23658;SDS011;12006;42.666;23.326;2024-02-04T10:50:21;1.40;;;1.30;;
23658;SDS011;12006;42.666;23.326;2024-02-04T10:52:48;0.97;;;0.60;;
23658;SDS011;12006;42.666;23.326;2024-02-04T10:55:15;0.90;;;0.90;;
23658;SDS011;12006;42.666;23.326;2024-02-04T10:57:42;1.57;;;0.97;;
23658;SDS011;12006;42.666;23.326;2024-02-04T11:00:07;2.13;;;0.90;;
23658;SDS011;12006;42.666;23.326;2024-02-04T11:02:36;0.93;;;0.83;;
23658;SDS011;12006;42.666;23.326;2024-02-04T11:05:05;1.27;;;0.90;;
23658;SDS011;12006;42.666;23.326;2024-02-04T11:07:34;1.10;;;0.70;;
23658;SDS011;12006;42.666;23.326;2024-02-04T11:10:00;1.57;;;1.40;;
23658;SDS011;12006;42.666;23.326;2024-02-04T11:12:25;1.00;;;0.80;;
23658;SDS011;12006;42.666;23.326;2024-02-04T11:14:53;1.13;;;0.87;;
23658;SDS011;12006;42.666;23.326;2024-02-04T11:20:04;1.57;;;0.90;;
23658;SDS011;12006;42.666;23.326;2024-02-04T11:22:40;1.00;;;0.87;;
23658;SDS011;12006;42.666;23.326;2024-02-04T11:25:19;1.40;;;1.00;;
23658;SDS011;12006;42.666;23.326;2024-02-04T11:27:50;2.13;;;1.57;;
23658;SDS011;12006;42.666;23.326;2024-02-04T11:30:16;2.60;;;1.17;;
23658;SDS011;12006;42.666;23.326;2024-02-04T11:32:41;0.67;;;0.53;;
23658;SDS011;12006;42.666;23.326;2024-02-04T11:35:06;0.70;;;0.70;;
23658;SDS011;12006;42.666;23.326;2024-02-04T11:37:32;1.20;;;0.83;;
23658;SDS011;12006;42.666;23.326;2024-02-04T11:39:58;0.70;;;0.70;;
23658;SDS011;12006;42.666;23.326;2024-02-04T11:42:24;2.37;;;0.83;;
23658;SDS011;12006;42.666;23.326;2024-02-04T11:44:49;2.80;;;1.33;;
23658;SDS011;12006;42.666;23.326;2024-02-04T11:47:25;0.87;;;0.87;;
23658;SDS011;12006;42.666;23.326;2024-02-04T11:49:54;1.13;;;1.03;;
23658;SDS011;12006;42.666;23.326;2024-02-04T11:52:20;1.40;;;1.23;;
23658;SDS011;12006;42.666;23.326;2024-02-04T11:54:45;0.80;;;0.80;;
23658;SDS011;12006;42.666;23.326;2024-02-04T11:57:10;0.83;;;0.63;;
23658;SDS011;12006;42.666;23.326;2024-02-04T11:59:35;0.87;;;0.70;;
23658;SDS011;12006;42.666;23.326;2024-02-04T12:02:05;1.87;;;0.90;;
23658;SDS011;12006;42.666;23.326;2024-02-04T12:04:31;0.97;;;0.90;;
23658;SDS011;12006;42.666;23.326;2024-02-04T12:06:57;0.90;;;0.90;;
23658;SDS011;12006;42.666;23.326;2024-02-04T12:09:22;1.43;;;1.00;;
23658;SDS011;12006;42.666;23.326;2024-02-04T12:11:47;0.70;;;0.70;;
23658;SDS011;12006;42.666;23.326;2024-02-04T12:14:12;0.93;;;0.87;;
23658;SDS011;12006;42.666;23.326;2024-02-04T12:16:38;1.50;;;1.00;;
23658;SDS011;12006;42.666;23.326;2024-02-04T12:19:05;1.30;;;1.20;;
23658;SDS011;12006;42.666;23.326;2024-02-04T12:21:30;1.33;;;1.23;;
23658;SDS011;12006;42.666;23.326;2024-02-04T12:23:56;1.20;;;1.10;;
23658;SDS011;12006;42.666;23.326;2024-02-04T12:26:22;1.10;;;1.00;;
23658;SDS011;12006;42.666;23.326;2024-02-04T12:28:48;1.80;;;1.10;;
23658;SDS011;12006;42.666;23.326;2024-02-04T12:31:19;1.20;;;1.10;;
23658;SDS011;12006;42.666;23.326;2024-02-04T12:33:55;1.00;;;0.90;;
23658;SDS011;12006;42.666;23.326;2024-02-04T12:36:22;1.50;;;1.30;;
23658;SDS011;12006;42.666;23.326;2024-02-04T12:38:54;1.10;;;1.03;;
23658;SDS011;12006;42.666;23.326;2024-02-04T12:41:20;1.83;;;1.10;;
23658;SDS011;12006;42.666;23.326;2024-02-04T12:43:49;1.57;;;1.47;;
23658;SDS011;12006;42.666;23.326;2024-02-04T12:46:14;1.27;;;1.17;;
23658;SDS011;12006;42.666;23.326;2024-02-04T12:48:39;1.70;;;1.50;;
23658;SDS011;12006;42.666;23.326;2024-02-04T12:51:05;1.40;;;1.30;;
23658;SDS011;12006;42.666;23.326;2024-02-04T12:53:30;0.83;;;0.80;;
23658;SDS011;12006;42.666;23.326;2024-02-04T12:55:58;1.30;;;1.13;;
23658;SDS011;12006;42.666;23.326;2024-02-04T12:58:24;0.87;;;0.83;;
23658;SDS011;12006;42.666;23.326;2024-02-04T13:00:58;1.73;;;1.57;;
23658;SDS011;12006;42.666;23.326;2024-02-04T13:03:24;1.50;;;1.40;;
23658;SDS011;12006;42.666;23.326;2024-02-04T13:05:49;1.50;;;1.27;;
23658;SDS011;12006;42.666;23.326;2024-02-04T13:08:14;0.80;;;0.80;;
23658;SDS011;12006;42.666;23.326;2024-02-04T13:10:43;1.17;;;1.10;;
23658;SDS011;12006;42.666;23.326;2024-02-04T13:13:10;1.20;;;1.10;;
23658;SDS011;12006;42.666;23.326;2024-02-04T13:15:41;1.30;;;1.00;;
23658;SDS011;12006;42.666;23.326;2024-02-04T13:18:08;1.40;;;1.30;;
23658;SDS011;12006;42.666;23.326;2024-02-04T13:20:33;0.80;;;0.80;;
23658;SDS011;12006;42.666;23.326;2024-02-04T13:22:58;1.20;;;1.10;;
23658;SDS011;12006;42.666;23.326;2024-02-04T13:25:25;1.20;;;1.00;;
23658;SDS011;12006;42.666;23.326;2024-02-04T13:27:50;1.20;;;1.10;;
23658;SDS011;12006;42.666;23.326;2024-02-04T13:30:16;1.23;;;1.13;;
23658;SDS011;12006;42.666;23.326;2024-02-04T13:32:42;1.10;;;1.00;;
23658;SDS011;12006;42.666;23.326;2024-02-04T13:35:07;2.53;;;1.17;;
23658;SDS011;12006;42.666;23.326;2024-02-04T13:37:36;1.47;;;1.37;;
23658;SDS011;12006;42.666;23.326;2024-02-04T13:40:02;0.97;;;0.97;;
23658;SDS011;12006;42.666;23.326;2024-02-04T13:42:28;1.00;;;0.90;;
23658;SDS011;12006;42.666;23.326;2024-02-04T13:44:54;1.00;;;0.90;;
23658;SDS011;12006;42.666;23.326;2024-02-04T13:47:19;0.93;;;0.77;;
23658;SDS011;12006;42.666;23.326;2024-02-04T13:49:44;1.57;;;1.40;;
23658;SDS011;12006;42.666;23.326;2024-02-04T13:52:09;1.27;;;1.17;;
23658;SDS011;12006;42.666;23.326;2024-02-04T13:54:35;1.37;;;1.20;;
23658;SDS011;12006;42.666;23.326;2024-02-04T13:57:00;1.17;;;1.07;;
23658;SDS011;12006;42.666;23.326;2024-02-04T13:59:25;0.67;;;0.67;;
23658;SDS011;12006;42.666;23.326;2024-02-04T14:01:51;1.17;;;1.07;;
23658;SDS011;12006;42.666;23.326;2024-02-04T14:04:17;3.27;;;1.57;;
23658;SDS011;12006;42.666;23.326;2024-02-04T14:06:42;0.80;;;0.80;;
23658;SDS011;12006;42.666;23.326;2024-02-04T14:09:08;1.60;;;1.50;;
23658;SDS011;12006;42.666;23.326;2024-02-04T14:11:33;1.70;;;1.20;;
23658;SDS011;12006;42.666;23.326;2024-02-04T14:13:58;1.63;;;1.50;;
23658;SDS011;12006;42.666;23.326;2024-02-04T14:16:23;2.13;;;1.50;;
23658;SDS011;12006;42.666;23.326;2024-02-04T14:18:50;1.70;;;1.60;;
23658;SDS011;12006;42.666;23.326;2024-02-04T14:21:15;2.27;;;1.37;;
23658;SDS011;12006;42.666;23.326;2024-02-04T14:23:40;3.13;;;1.63;;
23658;SDS011;12006;42.666;23.326;2024-02-04T14:26:05;1.07;;;0.97;;
23658;SDS011;12006;42.666;23.326;2024-02-04T14:28:34;2.87;;;1.53;;